sensor_id;sensor_type;location;lat;lon;timestamp;temperature;humidity
56268;DHT22;42175;46.930;9.532;2023-02-18T00:02:03;23.80;34.80
56268;DHT22;42175;46.930;9.532;2023-02-18T00:04:29;23.90;34.90
56268;DHT22;42175;46.930;9.532;2023-02-18T00:06:55;23.90;34.90
56268;DHT22;42175;46.930;9.532;2023-02-18T00:09:21;23.80;35.00
56268;DHT22;42175;46.930;9.532;2023-02-18T00:11:47;23.90;35.00
56268;DHT22;42175;46.930;9.532;2023-02-18T00:14:14;23.80;34.90
56268;DHT22;42175;46.930;9.532;2023-02-18T00:16:41;23.80;35.00
56268;DHT22;42175;46.930;9.532;2023-02-18T00:19:09;23.90;35.00
56268;DHT22;42175;46.930;9.532;2023-02-18T00:21:36;23.80;34.90
56268;DHT22;42175;46.930;9.532;2023-02-18T00:24:04;23.80;35.00
56268;DHT22;42175;46.930;9.532;2023-02-18T00:26:31;23.80;35.00
56268;DHT22;42175;46.930;9.532;2023-02-18T00:28:56;23.80;35.00
56268;DHT22;42175;46.930;9.532;2023-02-18T00:31:26;23.80;35.00
56268;DHT22;42175;46.930;9.532;2023-02-18T00:33:53;23.80;35.10
56268;DHT22;42175;46.930;9.532;2023-02-18T00:36:20;23.80;35.10
56268;DHT22;42175;46.930;9.532;2023-02-18T00:38:52;23.80;35.10
56268;DHT22;42175;46.930;9.532;2023-02-18T00:41:19;23.80;35.10
56268;DHT22;42175;46.930;9.532;2023-02-18T00:43:45;23.90;35.20
56268;DHT22;42175;46.930;9.532;2023-02-18T00:46:12;23.80;35.10
56268;DHT22;42175;46.930;9.532;2023-02-18T00:48:38;23.80;35.10
56268;DHT22;42175;46.930;9.532;2023-02-18T00:51:05;23.90;35.20
56268;DHT22;42175;46.930;9.532;2023-02-18T00:53:32;23.80;35.10
56268;DHT22;42175;46.930;9.532;2023-02-18T00:55:58;23.80;35.20
56268;DHT22;42175;46.930;9.532;2023-02-18T00:58:24;23.80;35.10
56268;DHT22;42175;46.930;9.532;2023-02-18T01:00:50;23.80;35.10
56268;DHT22;42175;46.930;9.532;2023-02-18T01:03:16;23.80;35.10
56268;DHT22;42175;46.930;9.532;2023-02-18T01:05:43;23.80;35.20
56268;DHT22;42175;46.930;9.532;2023-02-18T01:08:10;23.90;35.10
56268;DHT22;42175;46.930;9.532;2023-02-18T01:10:40;23.90;35.10
56268;DHT22;42175;46.930;9.532;2023-02-18T01:13:06;23.80;35.00
56268;DHT22;42175;46.930;9.532;2023-02-18T01:15:32;23.80;34.90
56268;DHT22;42175;46.930;9.532;2023-02-18T01:17:58;23.80;34.90
56268;DHT22;42175;46.930;9.532;2023-02-18T01:20:24;23.90;34.90
56268;DHT22;42175;46.930;9.532;2023-02-18T01:22:50;23.80;34.90
56268;DHT22;42175;46.930;9.532;2023-02-18T01:25:16;23.80;34.90
56268;DHT22;42175;46.930;9.532;2023-02-18T01:27:42;23.80;34.90
56268;DHT22;42175;46.930;9.532;2023-02-18T01:30:10;23.80;34.90
56268;DHT22;42175;46.930;9.532;2023-02-18T01:32:37;23.80;34.90
56268;DHT22;42175;46.930;9.532;2023-02-18T01:35:03;23.80;34.80
56268;DHT22;42175;46.930;9.532;2023-02-18T01:37:29;23.80;34.90
56268;DHT22;42175;46.930;9.532;2023-02-18T01:39:55;23.80;34.90
56268;DHT22;42175;46.930;9.532;2023-02-18T01:42:25;23.80;34.80
56268;DHT22;42175;46.930;9.532;2023-02-18T01:44:52;23.80;34.80
56268;DHT22;42175;46.930;9.532;2023-02-18T01:47:18;23.80;34.80
56268;DHT22;42175;46.930;9.532;2023-02-18T01:49:47;23.80;34.90
56268;DHT22;42175;46.930;9.532;2023-02-18T01:52:21;23.80;35.00
56268;DHT22;42175;46.930;9.532;2023-02-18T01:54:50;23.80;34.90
56268;DHT22;42175;46.930;9.532;2023-02-18T01:57:23;23.80;34.90
56268;DHT22;42175;46.930;9.532;2023-02-18T01:59:59;23.80;34.90
56268;DHT22;42175;46.930;9.532;2023-02-18T02:02:28;23.80;34.90
56268;DHT22;42175;46.930;9.532;2023-02-18T02:04:54;23.80;34.90
56268;DHT22;42175;46.930;9.532;2023-02-18T02:07:21;23.80;34.90
56268;DHT22;42175;46.930;9.532;2023-02-18T02:09:49;23.70;34.90
56268;DHT22;42175;46.930;9.532;2023-02-18T02:18:01;23.80;34.80
56268;DHT22;42175;46.930;9.532;2023-02-18T02:35:11;23.70;35.00
56268;DHT22;42175;46.930;9.532;2023-02-18T02:43:46;23.70;35.00
56268;DHT22;42175;46.930;9.532;2023-02-18T02:46:28;23.70;35.00
56268;DHT22;42175;46.930;9.532;2023-02-18T02:54:26;23.70;35.00
56268;DHT22;42175;46.930;9.532;2023-02-18T02:59:59;23.70;34.90
56268;DHT22;42175;46.930;9.532;2023-02-18T03:05:14;23.70;34.90
56268;DHT22;42175;46.930;9.532;2023-02-18T03:11:03;23.70;34.80
56268;DHT22;42175;46.930;9.532;2023-02-18T03:16:48;23.70;34.70
56268;DHT22;42175;46.930;9.532;2023-02-18T03:19:19;23.70;34.70
56268;DHT22;42175;46.930;9.532;2023-02-18T03:21:57;23.70;34.80
56268;DHT22;42175;46.930;9.532;2023-02-18T03:24:33;23.70;34.70
56268;DHT22;42175;46.930;9.532;2023-02-18T03:27:11;23.70;34.80
56268;DHT22;42175;46.930;9.532;2023-02-18T03:29:40;23.70;34.80
56268;DHT22;42175;46.930;9.532;2023-02-18T03:32:08;23.70;34.70
56268;DHT22;42175;46.930;9.532;2023-02-18T03:34:49;23.70;34.70
56268;DHT22;42175;46.930;9.532;2023-02-18T03:37:17;23.60;34.60
56268;DHT22;42175;46.930;9.532;2023-02-18T03:39:45;23.70;34.70
56268;DHT22;42175;46.930;9.532;2023-02-18T03:42:15;23.70;34.70
56268;DHT22;42175;46.930;9.532;2023-02-18T03:44:41;23.70;34.70
56268;DHT22;42175;46.930;9.532;2023-02-18T03:47:07;23.70;34.70
56268;DHT22;42175;46.930;9.532;2023-02-18T03:49:33;23.70;34.70
56268;DHT22;42175;46.930;9.532;2023-02-18T03:51:58;23.60;34.70
56268;DHT22;42175;46.930;9.532;2023-02-18T03:54:24;23.70;34.70
56268;DHT22;42175;46.930;9.532;2023-02-18T03:56:49;23.70;34.60
56268;DHT22;42175;46.930;9.532;2023-02-18T03:59:15;23.70;34.50
56268;DHT22;42175;46.930;9.532;2023-02-18T04:01:41;23.70;34.70
56268;DHT22;42175;46.930;9.532;2023-02-18T04:04:07;23.70;34.70
56268;DHT22;42175;46.930;9.532;2023-02-18T04:06:33;23.70;34.60
56268;DHT22;42175;46.930;9.532;2023-02-18T04:08:59;23.70;34.70
56268;DHT22;42175;46.930;9.532;2023-02-18T04:11:25;23.60;34.60
56268;DHT22;42175;46.930;9.532;2023-02-18T04:13:51;23.70;34.60
56268;DHT22;42175;46.930;9.532;2023-02-18T04:16:16;23.70;34.60
56268;DHT22;42175;46.930;9.532;2023-02-18T04:18:42;23.70;34.50
56268;DHT22;42175;46.930;9.532;2023-02-18T04:21:08;23.70;34.50
56268;DHT22;42175;46.930;9.532;2023-02-18T04:23:34;23.70;34.40
56268;DHT22;42175;46.930;9.532;2023-02-18T04:26:00;23.70;34.50
56268;DHT22;42175;46.930;9.532;2023-02-18T04:28:25;23.60;34.40
56268;DHT22;42175;46.930;9.532;2023-02-18T04:30:51;23.60;34.40
56268;DHT22;42175;46.930;9.532;2023-02-18T04:33:17;23.60;34.50
56268;DHT22;42175;46.930;9.532;2023-02-18T04:35:42;23.60;34.50
56268;DHT22;42175;46.930;9.532;2023-02-18T04:38:09;23.60;34.60
56268;DHT22;42175;46.930;9.532;2023-02-18T04:40:36;23.60;34.70
56268;DHT22;42175;46.930;9.532;2023-02-18T04:43:02;23.60;34.70
56268;DHT22;42175;46.930;9.532;2023-02-18T04:45:27;23.60;34.60
56268;DHT22;42175;46.930;9.532;2023-02-18T04:47:53;23.60;34.70
56268;DHT22;42175;46.930;9.532;2023-02-18T04:50:19;23.60;34.70
56268;DHT22;42175;46.930;9.532;2023-02-18T04:52:46;23.60;34.70
56268;DHT22;42175;46.930;9.532;2023-02-18T04:55:11;23.60;34.70
56268;DHT22;42175;46.930;9.532;2023-02-18T04:57:37;23.60;34.70
56268;DHT22;42175;46.930;9.532;2023-02-18T05:00:05;23.60;34.60
56268;DHT22;42175;46.930;9.532;2023-02-18T05:02:31;23.60;34.50
56268;DHT22;42175;46.930;9.532;2023-02-18T05:04:57;23.60;34.50
56268;DHT22;42175;46.930;9.532;2023-02-18T05:07:23;23.60;34.50
56268;DHT22;42175;46.930;9.532;2023-02-18T05:09:49;23.60;34.60
56268;DHT22;42175;46.930;9.532;2023-02-18T05:12:14;23.60;34.60
56268;DHT22;42175;46.930;9.532;2023-02-18T05:14:40;23.60;34.60
56268;DHT22;42175;46.930;9.532;2023-02-18T05:17:06;23.50;34.50
56268;DHT22;42175;46.930;9.532;2023-02-18T05:19:32;23.60;34.40
56268;DHT22;42175;46.930;9.532;2023-02-18T05:21:57;23.60;34.40
56268;DHT22;42175;46.930;9.532;2023-02-18T05:24:23;23.60;34.30
56268;DHT22;42175;46.930;9.532;2023-02-18T05:26:49;23.60;34.30
56268;DHT22;42175;46.930;9.532;2023-02-18T05:29:14;23.60;34.30
56268;DHT22;42175;46.930;9.532;2023-02-18T05:31:40;23.60;34.30
56268;DHT22;42175;46.930;9.532;2023-02-18T05:34:06;23.60;34.40
56268;DHT22;42175;46.930;9.532;2023-02-18T05:36:32;23.60;34.40
56268;DHT22;42175;46.930;9.532;2023-02-18T05:38:58;23.60;34.30
56268;DHT22;42175;46.930;9.532;2023-02-18T05:41:23;23.60;34.20
56268;DHT22;42175;46.930;9.532;2023-02-18T05:43:49;23.50;34.30
56268;DHT22;42175;46.930;9.532;2023-02-18T05:46:33;23.50;34.30
56268;DHT22;42175;46.930;9.532;2023-02-18T05:48:59;23.60;34.30
56268;DHT22;42175;46.930;9.532;2023-02-18T05:51:25;23.50;34.30
56268;DHT22;42175;46.930;9.532;2023-02-18T05:53:50;23.50;34.30
56268;DHT22;42175;46.930;9.532;2023-02-18T05:56:16;23.60;34.40
56268;DHT22;42175;46.930;9.532;2023-02-18T05:58:42;23.50;34.40
56268;DHT22;42175;46.930;9.532;2023-02-18T06:01:08;23.60;34.40
56268;DHT22;42175;46.930;9.532;2023-02-18T06:03:34;23.60;34.40
56268;DHT22;42175;46.930;9.532;2023-02-18T06:05:59;23.60;34.40
56268;DHT22;42175;46.930;9.532;2023-02-18T06:08:25;23.60;34.40
56268;DHT22;42175;46.930;9.532;2023-02-18T06:10:51;23.60;34.40
56268;DHT22;42175;46.930;9.532;2023-02-18T06:13:16;23.50;34.20
56268;DHT22;42175;46.930;9.532;2023-02-18T06:15:42;23.60;34.30
56268;DHT22;42175;46.930;9.532;2023-02-18T06:18:08;23.50;34.30
56268;DHT22;42175;46.930;9.532;2023-02-18T06:20:34;23.50;34.30
56268;DHT22;42175;46.930;9.532;2023-02-18T06:23:00;23.50;34.30
56268;DHT22;42175;46.930;9.532;2023-02-18T06:25:25;23.50;34.40
56268;DHT22;42175;46.930;9.532;2023-02-18T06:27:51;23.60;34.40
56268;DHT22;42175;46.930;9.532;2023-02-18T06:30:17;23.50;34.40
56268;DHT22;42175;46.930;9.532;2023-02-18T06:32:43;23.50;34.30
56268;DHT22;42175;46.930;9.532;2023-02-18T06:35:08;23.50;34.40
56268;DHT22;42175;46.930;9.532;2023-02-18T06:37:34;23.50;34.30
56268;DHT22;42175;46.930;9.532;2023-02-18T06:40:00;23.50;34.30
56268;DHT22;42175;46.930;9.532;2023-02-18T06:42:25;23.60;34.30
56268;DHT22;42175;46.930;9.532;2023-02-18T06:44:51;23.50;34.20
56268;DHT22;42175;46.930;9.532;2023-02-18T06:47:17;23.50;34.20
56268;DHT22;42175;46.930;9.532;2023-02-18T06:49:42;23.50;34.20
56268;DHT22;42175;46.930;9.532;2023-02-18T06:52:08;23.50;34.10
56268;DHT22;42175;46.930;9.532;2023-02-18T06:54:34;23.60;34.20
56268;DHT22;42175;46.930;9.532;2023-02-18T06:56:59;23.50;34.10
56268;DHT22;42175;46.930;9.532;2023-02-18T06:59:25;23.50;34.20
56268;DHT22;42175;46.930;9.532;2023-02-18T07:01:51;23.60;34.30
56268;DHT22;42175;46.930;9.532;2023-02-18T07:04:16;23.60;34.30
56268;DHT22;42175;46.930;9.532;2023-02-18T07:06:42;23.60;34.20
56268;DHT22;42175;46.930;9.532;2023-02-18T07:09:08;23.60;34.20
56268;DHT22;42175;46.930;9.532;2023-02-18T07:11:34;23.60;34.10
56268;DHT22;42175;46.930;9.532;2023-02-18T07:14:00;23.60;34.80
56268;DHT22;42175;46.930;9.532;2023-02-18T07:16:25;23.60;34.10
56268;DHT22;42175;46.930;9.532;2023-02-18T07:18:51;23.60;34.40
56268;DHT22;42175;46.930;9.532;2023-02-18T07:21:17;23.60;34.80
56268;DHT22;42175;46.930;9.532;2023-02-18T07:23:42;23.60;35.10
56268;DHT22;42175;46.930;9.532;2023-02-18T07:26:10;23.60;35.00
56268;DHT22;42175;46.930;9.532;2023-02-18T07:28:37;23.60;35.40
56268;DHT22;42175;46.930;9.532;2023-02-18T07:31:03;23.60;35.30
56268;DHT22;42175;46.930;9.532;2023-02-18T07:33:29;23.60;35.00
56268;DHT22;42175;46.930;9.532;2023-02-18T07:35:57;23.60;34.90
56268;DHT22;42175;46.930;9.532;2023-02-18T07:38:23;23.60;34.80
56268;DHT22;42175;46.930;9.532;2023-02-18T07:40:49;23.60;34.80
56268;DHT22;42175;46.930;9.532;2023-02-18T07:43:15;23.60;34.90
56268;DHT22;42175;46.930;9.532;2023-02-18T07:45:41;23.70;35.00
56268;DHT22;42175;46.930;9.532;2023-02-18T07:48:07;23.70;34.90
56268;DHT22;42175;46.930;9.532;2023-02-18T07:50:32;23.70;35.00
56268;DHT22;42175;46.930;9.532;2023-02-18T07:53:02;23.70;35.10
56268;DHT22;42175;46.930;9.532;2023-02-18T07:55:29;23.70;35.10
56268;DHT22;42175;46.930;9.532;2023-02-18T07:58:17;23.70;35.10
56268;DHT22;42175;46.930;9.532;2023-02-18T08:00:44;23.70;35.10
56268;DHT22;42175;46.930;9.532;2023-02-18T08:03:12;23.70;35.40
56268;DHT22;42175;46.930;9.532;2023-02-18T08:05:38;23.60;33.00
56268;DHT22;42175;46.930;9.532;2023-02-18T08:08:04;23.50;35.40
56268;DHT22;42175;46.930;9.532;2023-02-18T08:10:30;23.60;35.60
56268;DHT22;42175;46.930;9.532;2023-02-18T08:12:55;23.70;35.50
56268;DHT22;42175;46.930;9.532;2023-02-18T08:15:21;23.70;35.60
56268;DHT22;42175;46.930;9.532;2023-02-18T08:17:47;23.80;35.70
56268;DHT22;42175;46.930;9.532;2023-02-18T08:20:12;23.80;35.70
56268;DHT22;42175;46.930;9.532;2023-02-18T08:22:38;23.80;35.70
56268;DHT22;42175;46.930;9.532;2023-02-18T08:25:04;23.80;35.90
56268;DHT22;42175;46.930;9.532;2023-02-18T08:27:30;23.80;35.80
56268;DHT22;42175;46.930;9.532;2023-02-18T08:29:56;23.40;31.40
56268;DHT22;42175;46.930;9.532;2023-02-18T08:32:21;22.80;30.80
56268;DHT22;42175;46.930;9.532;2023-02-18T08:34:47;22.50;31.00
56268;DHT22;42175;46.930;9.532;2023-02-18T08:37:13;22.10;30.50
56268;DHT22;42175;46.930;9.532;2023-02-18T08:39:38;21.70;30.90
56268;DHT22;42175;46.930;9.532;2023-02-18T08:42:05;21.40;31.20
56268;DHT22;42175;46.930;9.532;2023-02-18T08:44:30;21.20;31.00
56268;DHT22;42175;46.930;9.532;2023-02-18T08:46:56;21.10;31.00
56268;DHT22;42175;46.930;9.532;2023-02-18T08:49:21;20.90;31.90
56268;DHT22;42175;46.930;9.532;2023-02-18T08:51:51;21.00;31.80
56268;DHT22;42175;46.930;9.532;2023-02-18T08:54:17;20.90;32.10
56268;DHT22;42175;46.930;9.532;2023-02-18T08:56:43;20.70;31.40
56268;DHT22;42175;46.930;9.532;2023-02-18T08:59:09;20.60;31.40
56268;DHT22;42175;46.930;9.532;2023-02-18T09:01:35;20.30;31.70
56268;DHT22;42175;46.930;9.532;2023-02-18T09:04:00;20.60;32.30
56268;DHT22;42175;46.930;9.532;2023-02-18T09:06:26;21.00;33.00
56268;DHT22;42175;46.930;9.532;2023-02-18T09:08:52;21.40;33.00
56268;DHT22;42175;46.930;9.532;2023-02-18T09:11:18;21.70;33.00
56268;DHT22;42175;46.930;9.532;2023-02-18T09:13:44;21.90;33.00
56268;DHT22;42175;46.930;9.532;2023-02-18T09:16:17;22.10;33.20
56268;DHT22;42175;46.930;9.532;2023-02-18T09:18:44;22.20;33.20
56268;DHT22;42175;46.930;9.532;2023-02-18T09:21:12;22.30;33.50
56268;DHT22;42175;46.930;9.532;2023-02-18T09:23:38;22.40;33.50
56268;DHT22;42175;46.930;9.532;2023-02-18T09:26:06;22.50;33.60
56268;DHT22;42175;46.930;9.532;2023-02-18T09:28:33;22.50;33.70
56268;DHT22;42175;46.930;9.532;2023-02-18T09:31:09;22.60;34.00
56268;DHT22;42175;46.930;9.532;2023-02-18T09:33:39;22.60;34.10
56268;DHT22;42175;46.930;9.532;2023-02-18T09:36:06;22.70;34.10
56268;DHT22;42175;46.930;9.532;2023-02-18T09:38:32;22.70;34.20
56268;DHT22;42175;46.930;9.532;2023-02-18T09:41:00;22.70;34.20
56268;DHT22;42175;46.930;9.532;2023-02-18T09:43:34;22.70;34.60
56268;DHT22;42175;46.930;9.532;2023-02-18T09:46:01;22.70;34.50
56268;DHT22;42175;46.930;9.532;2023-02-18T09:48:32;22.70;34.60
56268;DHT22;42175;46.930;9.532;2023-02-18T09:50:59;22.70;34.70
56268;DHT22;42175;46.930;9.532;2023-02-18T09:53:25;22.80;34.80
56268;DHT22;42175;46.930;9.532;2023-02-18T09:55:53;22.80;34.80
56268;DHT22;42175;46.930;9.532;2023-02-18T09:58:30;22.80;34.80
56268;DHT22;42175;46.930;9.532;2023-02-18T10:03:26;22.90;34.90
56268;DHT22;42175;46.930;9.532;2023-02-18T10:08:36;23.00;34.90
56268;DHT22;42175;46.930;9.532;2023-02-18T10:11:03;23.00;34.90
56268;DHT22;42175;46.930;9.532;2023-02-18T10:13:31;23.00;35.00
56268;DHT22;42175;46.930;9.532;2023-02-18T10:15:57;23.00;34.90
56268;DHT22;42175;46.930;9.532;2023-02-18T10:18:29;23.10;35.00
56268;DHT22;42175;46.930;9.532;2023-02-18T10:21:04;23.10;35.00
56268;DHT22;42175;46.930;9.532;2023-02-18T10:23:33;23.10;35.00
56268;DHT22;42175;46.930;9.532;2023-02-18T10:26:02;23.10;35.10
56268;DHT22;42175;46.930;9.532;2023-02-18T10:28:30;23.10;35.00
56268;DHT22;42175;46.930;9.532;2023-02-18T10:30:59;23.10;35.10
56268;DHT22;42175;46.930;9.532;2023-02-18T10:33:31;23.10;35.00
56268;DHT22;42175;46.930;9.532;2023-02-18T10:36:14;23.10;35.00
56268;DHT22;42175;46.930;9.532;2023-02-18T10:39:12;23.10;35.10
56268;DHT22;42175;46.930;9.532;2023-02-18T10:45:11;23.20;35.10
56268;DHT22;42175;46.930;9.532;2023-02-18T10:47:45;23.20;35.10
56268;DHT22;42175;46.930;9.532;2023-02-18T10:50:36;23.30;35.10
56268;DHT22;42175;46.930;9.532;2023-02-18T10:53:18;23.30;35.00
56268;DHT22;42175;46.930;9.532;2023-02-18T10:55:46;23.40;35.10
56268;DHT22;42175;46.930;9.532;2023-02-18T10:58:35;23.40;35.20
56268;DHT22;42175;46.930;9.532;2023-02-18T11:01:11;23.40;35.20
56268;DHT22;42175;46.930;9.532;2023-02-18T11:03:43;23.40;35.10
56268;DHT22;42175;46.930;9.532;2023-02-18T11:09:30;23.40;35.10
56268;DHT22;42175;46.930;9.532;2023-02-18T11:12:05;23.50;35.10
56268;DHT22;42175;46.930;9.532;2023-02-18T11:14:46;23.50;35.10
56268;DHT22;42175;46.930;9.532;2023-02-18T11:17:26;23.50;35.00
56268;DHT22;42175;46.930;9.532;2023-02-18T11:20:01;23.60;35.00
56268;DHT22;42175;46.930;9.532;2023-02-18T11:22:32;23.60;34.90
56268;DHT22;42175;46.930;9.532;2023-02-18T11:25:01;23.50;34.80
56268;DHT22;42175;46.930;9.532;2023-02-18T11:27:31;23.60;34.90
56268;DHT22;42175;46.930;9.532;2023-02-18T11:30:06;23.60;34.90
56268;DHT22;42175;46.930;9.532;2023-02-18T11:32:41;23.60;34.80
56268;DHT22;42175;46.930;9.532;2023-02-18T11:35:19;23.60;34.80
56268;DHT22;42175;46.930;9.532;2023-02-18T11:37:46;23.70;34.80
56268;DHT22;42175;46.930;9.532;2023-02-18T11:40:21;23.60;34.80
56268;DHT22;42175;46.930;9.532;2023-02-18T11:42:47;23.70;34.80
56268;DHT22;42175;46.930;9.532;2023-02-18T11:45:27;23.70;34.80
56268;DHT22;42175;46.930;9.532;2023-02-18T11:48:05;23.60;34.70
56268;DHT22;42175;46.930;9.532;2023-02-18T11:50:32;23.70;34.80
56268;DHT22;42175;46.930;9.532;2023-02-18T11:52:59;23.70;34.70
56268;DHT22;42175;46.930;9.532;2023-02-18T11:55:28;23.70;34.80
56268;DHT22;42175;46.930;9.532;2023-02-18T11:57:59;23.70;34.70
56268;DHT22;42175;46.930;9.532;2023-02-18T12:00:50;23.70;34.70
56268;DHT22;42175;46.930;9.532;2023-02-18T12:06:10;23.70;34.60
56268;DHT22;42175;46.930;9.532;2023-02-18T12:11:45;23.80;34.60
56268;DHT22;42175;46.930;9.532;2023-02-18T12:14:19;23.80;34.60
56268;DHT22;42175;46.930;9.532;2023-02-18T12:19:48;23.80;34.60
56268;DHT22;42175;46.930;9.532;2023-02-18T12:30:57;23.70;34.60
56268;DHT22;42175;46.930;9.532;2023-02-18T12:42:20;23.80;34.70
56268;DHT22;42175;46.930;9.532;2023-02-18T13:01:42;23.80;34.60
56268;DHT22;42175;46.930;9.532;2023-02-18T13:12:15;23.80;34.30
56268;DHT22;42175;46.930;9.532;2023-02-18T13:15:05;23.80;34.40
56268;DHT22;42175;46.930;9.532;2023-02-18T13:17:38;23.80;34.40
56268;DHT22;42175;46.930;9.532;2023-02-18T13:20:16;23.80;34.30
56268;DHT22;42175;46.930;9.532;2023-02-18T13:22:44;23.80;34.10
56268;DHT22;42175;46.930;9.532;2023-02-18T13:25:12;23.90;34.00
56268;DHT22;42175;46.930;9.532;2023-02-18T13:30:35;23.80;34.00
56268;DHT22;42175;46.930;9.532;2023-02-18T13:33:21;23.80;34.10
56268;DHT22;42175;46.930;9.532;2023-02-18T13:41:10;23.80;34.20
56268;DHT22;42175;46.930;9.532;2023-02-18T13:43:36;23.80;34.20
56268;DHT22;42175;46.930;9.532;2023-02-18T13:46:13;23.80;34.20
56268;DHT22;42175;46.930;9.532;2023-02-18T13:48:43;23.80;34.00
56268;DHT22;42175;46.930;9.532;2023-02-18T13:51:15;23.80;34.00
56268;DHT22;42175;46.930;9.532;2023-02-18T13:53:43;23.90;34.00
56268;DHT22;42175;46.930;9.532;2023-02-18T13:58:47;23.90;34.10
56268;DHT22;42175;46.930;9.532;2023-02-18T14:01:24;23.90;34.20
56268;DHT22;42175;46.930;9.532;2023-02-18T14:03:58;23.90;34.10
56268;DHT22;42175;46.930;9.532;2023-02-18T14:11:47;23.90;34.10
56268;DHT22;42175;46.930;9.532;2023-02-18T14:22:44;23.90;34.10
56268;DHT22;42175;46.930;9.532;2023-02-18T14:25:34;23.90;34.10
56268;DHT22;42175;46.930;9.532;2023-02-18T14:28:03;23.90;34.10
56268;DHT22;42175;46.930;9.532;2023-02-18T14:30:47;23.90;34.10
56268;DHT22;42175;46.930;9.532;2023-02-18T14:33:14;23.90;34.20
56268;DHT22;42175;46.930;9.532;2023-02-18T14:35:52;23.90;34.20
56268;DHT22;42175;46.930;9.532;2023-02-18T14:38:32;23.90;34.20
56268;DHT22;42175;46.930;9.532;2023-02-18T14:41:51;23.90;34.20
56268;DHT22;42175;46.930;9.532;2023-02-18T14:50:15;24.00;34.30
56268;DHT22;42175;46.930;9.532;2023-02-18T14:52:46;23.90;34.30
56268;DHT22;42175;46.930;9.532;2023-02-18T14:55:25;23.90;34.40
56268;DHT22;42175;46.930;9.532;2023-02-18T15:00:41;23.90;34.50
56268;DHT22;42175;46.930;9.532;2023-02-18T15:03:16;24.00;34.70
56268;DHT22;42175;46.930;9.532;2023-02-18T15:05:43;24.00;34.70
56268;DHT22;42175;46.930;9.532;2023-02-18T15:08:15;24.00;34.70
56268;DHT22;42175;46.930;9.532;2023-02-18T15:13:20;23.90;34.80
56268;DHT22;42175;46.930;9.532;2023-02-18T15:15:53;24.00;34.80
56268;DHT22;42175;46.930;9.532;2023-02-18T15:18:36;23.90;34.70
56268;DHT22;42175;46.930;9.532;2023-02-18T15:21:04;24.00;34.70
56268;DHT22;42175;46.930;9.532;2023-02-18T15:23:33;24.00;34.70
56268;DHT22;42175;46.930;9.532;2023-02-18T15:26:00;24.00;34.70
56268;DHT22;42175;46.930;9.532;2023-02-18T15:28:29;24.00;34.70
56268;DHT22;42175;46.930;9.532;2023-02-18T15:30:57;24.00;34.70
56268;DHT22;42175;46.930;9.532;2023-02-18T15:33:23;24.00;34.70
56268;DHT22;42175;46.930;9.532;2023-02-18T15:35:48;23.90;34.70
56268;DHT22;42175;46.930;9.532;2023-02-18T15:38:17;23.90;34.80
56268;DHT22;42175;46.930;9.532;2023-02-18T15:40:46;23.90;34.80
56268;DHT22;42175;46.930;9.532;2023-02-18T15:43:16;23.90;34.80
56268;DHT22;42175;46.930;9.532;2023-02-18T15:45:44;23.90;34.80
56268;DHT22;42175;46.930;9.532;2023-02-18T15:48:27;23.80;34.70
56268;DHT22;42175;46.930;9.532;2023-02-18T15:50:56;23.80;34.70
56268;DHT22;42175;46.930;9.532;2023-02-18T15:53:23;23.80;34.70
56268;DHT22;42175;46.930;9.532;2023-02-18T15:55:51;23.90;34.70
56268;DHT22;42175;46.930;9.532;2023-02-18T16:00:57;23.90;34.90
56268;DHT22;42175;46.930;9.532;2023-02-18T16:03:24;23.90;34.80
56268;DHT22;42175;46.930;9.532;2023-02-18T16:06:07;23.90;34.70
56268;DHT22;42175;46.930;9.532;2023-02-18T16:08:33;23.90;34.70
56268;DHT22;42175;46.930;9.532;2023-02-18T16:11:07;23.90;34.80
56268;DHT22;42175;46.930;9.532;2023-02-18T16:13:35;24.00;35.00
56268;DHT22;42175;46.930;9.532;2023-02-18T16:16:01;24.00;35.20
56268;DHT22;42175;46.930;9.532;2023-02-18T16:18:36;23.90;35.10
56268;DHT22;42175;46.930;9.532;2023-02-18T16:21:05;24.00;35.30
56268;DHT22;42175;46.930;9.532;2023-02-18T16:23:42;23.90;35.30
56268;DHT22;42175;46.930;9.532;2023-02-18T16:29:15;24.00;35.40
56268;DHT22;42175;46.930;9.532;2023-02-18T16:31:42;24.00;35.40
56268;DHT22;42175;46.930;9.532;2023-02-18T16:34:08;24.00;35.40
56268;DHT22;42175;46.930;9.532;2023-02-18T16:36:34;24.00;35.30
56268;DHT22;42175;46.930;9.532;2023-02-18T16:39:01;24.00;36.00
56268;DHT22;42175;46.930;9.532;2023-02-18T16:41:32;24.00;35.50
56268;DHT22;42175;46.930;9.532;2023-02-18T16:43:58;24.00;35.50
56268;DHT22;42175;46.930;9.532;2023-02-18T16:46:24;24.00;35.30
56268;DHT22;42175;46.930;9.532;2023-02-18T16:48:51;24.00;35.00
56268;DHT22;42175;46.930;9.532;2023-02-18T16:51:28;24.00;35.00
56268;DHT22;42175;46.930;9.532;2023-02-18T16:53:54;23.90;35.00
56268;DHT22;42175;46.930;9.532;2023-02-18T16:56:22;23.90;35.00
56268;DHT22;42175;46.930;9.532;2023-02-18T16:58:48;23.90;35.10
56268;DHT22;42175;46.930;9.532;2023-02-18T17:03:53;23.90;35.50
56268;DHT22;42175;46.930;9.532;2023-02-18T17:06:19;23.90;35.40
56268;DHT22;42175;46.930;9.532;2023-02-18T17:08:46;23.90;35.40
56268;DHT22;42175;46.930;9.532;2023-02-18T17:11:32;23.90;35.50
56268;DHT22;42175;46.930;9.532;2023-02-18T17:13:59;23.90;35.70
56268;DHT22;42175;46.930;9.532;2023-02-18T17:16:28;23.90;35.50
56268;DHT22;42175;46.930;9.532;2023-02-18T17:18:53;23.90;35.80
56268;DHT22;42175;46.930;9.532;2023-02-18T17:21:21;24.00;35.90
56268;DHT22;42175;46.930;9.532;2023-02-18T17:23:48;24.00;35.60
56268;DHT22;42175;46.930;9.532;2023-02-18T17:26:34;24.00;35.80
56268;DHT22;42175;46.930;9.532;2023-02-18T17:29:00;24.00;35.90
56268;DHT22;42175;46.930;9.532;2023-02-18T17:31:34;24.00;36.00
56268;DHT22;42175;46.930;9.532;2023-02-18T17:34:03;23.90;36.00
56268;DHT22;42175;46.930;9.532;2023-02-18T17:36:30;23.90;35.90
56268;DHT22;42175;46.930;9.532;2023-02-18T17:38:56;23.90;35.90
56268;DHT22;42175;46.930;9.532;2023-02-18T17:41:22;23.90;36.00
56268;DHT22;42175;46.930;9.532;2023-02-18T17:43:48;23.90;35.90
56268;DHT22;42175;46.930;9.532;2023-02-18T17:46:15;23.90;35.90
56268;DHT22;42175;46.930;9.532;2023-02-18T17:48:45;24.00;36.00
56268;DHT22;42175;46.930;9.532;2023-02-18T17:51:22;24.00;35.90
56268;DHT22;42175;46.930;9.532;2023-02-18T17:53:48;24.00;36.00
56268;DHT22;42175;46.930;9.532;2023-02-18T17:56:14;24.00;36.00
56268;DHT22;42175;46.930;9.532;2023-02-18T17:58:40;24.00;35.90
56268;DHT22;42175;46.930;9.532;2023-02-18T18:01:05;23.90;35.90
56268;DHT22;42175;46.930;9.532;2023-02-18T18:03:33;24.00;35.90
56268;DHT22;42175;46.930;9.532;2023-02-18T18:05:58;24.00;36.00
56268;DHT22;42175;46.930;9.532;2023-02-18T18:08:25;24.00;36.00
56268;DHT22;42175;46.930;9.532;2023-02-18T18:10:55;24.00;36.00
56268;DHT22;42175;46.930;9.532;2023-02-18T18:13:28;23.90;35.90